Time;durP1;ratioP1;P1;durP2;ratioP2;P2;SDS_P1;SDS_P2;PMS_P1;PMS_P2;Temp;Humidity;BMP_temperature;BMP_pressure;BME280_temperature;BME280_humidity;BME280_pressure;Samples;Min_cycle;Max_cycle;Signal;HPM_P1;HPM_P2
2021/10/21 00:00:10;;;;;;;1.08;0.70;;;13.20;1.40;;;14.20;99.58;94340.68;646578;212;42432;-71
2021/10/21 00:02:52;;;;;;;1.25;0.70;;;13.30;1.40;;;14.19;99.00;94334.88;647508;216;32078;-72
2021/10/21 00:05:37;;;;;;;0.90;0.70;;;13.30;1.40;;;14.14;98.57;94318.28;646044;212;31541;-72
2021/10/21 00:08:18;;;;;;;1.12;0.70;;;13.20;1.40;;;14.13;98.04;94308.67;646954;216;31496;-72
2021/10/21 00:11:00;;;;;;;0.90;0.50;;;13.20;1.40;;;14.10;97.68;94312.89;648214;212;31504;-71
2021/10/21 00:13:42;;;;;;;0.73;0.60;;;13.20;1.40;;;14.15;96.64;94316.27;646082;216;31574;-71
2021/10/21 00:16:24;;;;;;;0.80;0.70;;;13.20;1.40;;;14.07;97.14;94310.41;646629;215;32077;-71
2021/10/21 00:19:05;;;;;;;0.70;0.50;;;13.10;1.40;;;14.04;97.12;94316.20;646481;212;32140;-71
2021/10/21 00:21:48;;;;;;;1.60;0.90;;;13.10;1.40;;;14.04;96.75;94304.88;619424;226;42531;-71
2021/10/21 00:24:29;;;;;;;1.10;0.90;;;13.20;1.40;;;14.03;96.25;94301.20;646206;212;32229;-70
2021/10/21 00:27:10;;;;;;;1.00;0.60;;;13.20;1.40;;;14.05;95.89;94296.62;646240;212;31475;-71
2021/10/21 00:29:52;;;;;;;0.70;0.70;;;13.20;1.40;;;14.01;96.09;94291.88;619718;222;32012;-71
2021/10/21 00:32:34;;;;;;;1.08;0.98;;;13.10;1.40;;;14.20;93.70;94287.69;645569;212;31501;-72
2021/10/21 00:35:51;;;;;;;1.10;0.80;;;13.40;1.40;;;14.23;92.78;94270.59;646445;212;31686;-71
2021/10/21 00:38:33;;;;;;;1.30;1.00;;;13.40;1.40;;;14.25;92.07;94265.44;646241;212;42119;-72
2021/10/21 00:41:14;;;;;;;0.97;0.67;;;13.40;1.40;;;14.29;91.37;94255.61;641540;216;31639;-71
2021/10/21 00:46:37;;;;;;;0.93;0.80;;;13.50;1.40;;;14.40;89.78;94252.02;620863;222;31824;-83
2021/10/21 00:49:25;;;;;;;1.37;0.90;;;13.50;1.40;;;14.27;90.68;94238.40;646961;216;31605;-71
2021/10/21 00:52:07;;;;;;;1.08;0.73;;;13.30;1.40;;;14.26;90.82;94235.53;646924;212;31543;-71
2021/10/21 00:54:48;;;;;;;1.50;0.70;;;13.20;1.40;;;14.29;90.06;94218.64;618085;226;32919;-70
2021/10/21 00:57:30;;;;;;;0.98;0.90;;;13.30;1.40;;;14.18;90.77;94205.01;646217;212;31526;-71
2021/10/21 01:00:12;;;;;;;1.20;1.10;;;13.20;1.40;;;14.17;90.33;94211.80;647123;216;31491;-71
2021/10/21 01:02:56;;;;;;;2.00;1.00;;;13.10;1.40;;;14.06;90.79;94210.86;649382;216;32027;-84
2021/10/21 01:05:44;;;;;;;1.00;0.88;;;13.10;1.40;;;14.13;90.23;94204.88;645437;212;31857;-71
2021/10/21 01:08:28;;;;;;;1.10;0.80;;;13.20;1.40;;;14.19;89.60;94203.91;646624;216;42646;-72
2021/10/21 01:11:10;;;;;;;0.90;0.70;;;13.30;1.40;;;14.29;87.98;94195.73;644907;216;32169;-71
2021/10/21 01:13:52;;;;;;;1.00;0.90;;;13.40;1.40;;;14.21;88.64;94186.31;646239;213;31527;-71
2021/10/21 01:16:34;;;;;;;1.05;0.80;;;13.30;1.40;;;14.27;88.15;94181.64;646515;212;31466;-72
2021/10/21 01:19:18;;;;;;;1.10;0.80;;;13.40;1.40;;;14.42;86.80;94170.24;646784;212;31669;-71
2021/10/21 01:22:01;;;;;;;1.98;1.20;;;13.60;1.40;;;14.41;86.76;94161.98;647059;212;31561;-72
2021/10/21 01:24:41;;;;;;;1.48;1.00;;;13.50;1.40;;;14.36;86.87;94167.31;646848;212;31509;-71
2021/10/21 01:27:23;;;;;;;1.35;0.90;;;13.40;1.40;;;14.45;86.40;94168.63;642299;215;31547;-72
2021/10/21 01:30:05;;;;;;;2.40;1.08;;;13.60;1.40;;;14.41;86.42;94162.52;619155;222;31812;-71
2021/10/21 01:32:47;;;;;;;2.10;0.90;;;13.60;1.40;;;14.40;86.35;94145.46;646575;216;31647;-71
2021/10/21 01:35:54;;;;;;;1.60;0.73;;;13.50;1.40;;;14.34;86.82;94138.58;645575;216;31492;-71
2021/10/21 01:38:35;;;;;;;1.00;0.90;;;13.40;1.40;;;14.29;87.09;94140.45;647033;212;31507;-71
2021/10/21 01:41:17;;;;;;;1.50;0.93;;;13.30;1.40;;;14.30;86.72;94141.38;641821;216;31644;-71
2021/10/21 01:43:59;;;;;;;0.90;0.90;;;13.40;1.40;;;14.13;87.95;94136.72;646975;216;31518;-71
2021/10/21 01:46:40;;;;;;;1.00;0.80;;;13.10;1.40;;;14.10;88.04;94133.25;647086;216;31474;-72
2021/10/21 01:49:24;;;;;;;1.50;1.00;;;13.20;1.40;;;14.00;88.96;94126.82;646752;216;31503;-70
2021/10/21 01:52:04;;;;;;;0.62;0.60;;;13.00;1.40;;;13.92;89.57;94129.76;647288;216;42265;-70
2021/10/21 01:54:46;;;;;;;1.20;0.90;;;12.90;1.40;;;13.75;91.26;94124.50;642824;215;31537;-71
2021/10/21 01:57:28;;;;;;;1.30;0.70;;;12.70;1.40;;;13.72;92.54;94124.17;646679;216;42127;-70
2021/10/21 02:02:32;;;;;;;0.80;0.80;;;12.80;1.40;;;13.88;90.96;94095.69;646898;212;31510;-72
2021/10/21 02:05:14;;;;;;;0.80;0.52;;;13.00;1.40;;;14.06;89.50;94095.61;646027;212;42157;-71
2021/10/21 02:07:56;;;;;;;0.70;0.60;;;13.20;1.40;;;14.26;87.67;94104.34;646994;216;31537;-71
2021/10/21 02:10:37;;;;;;;1.30;0.90;;;13.30;1.40;;;14.19;88.75;94107.89;646363;216;31538;-72
2021/10/21 02:13:19;;;;;;;1.00;0.80;;;13.00;1.40;;;14.12;91.41;94111.04;644785;212;42147;-72
2021/10/21 02:16:01;;;;;;;1.30;0.80;;;12.60;1.40;;;14.01;92.67;94098.61;646548;216;31666;-74
2021/10/21 02:18:43;;;;;;;1.73;0.93;;;12.30;1.40;;;13.71;95.18;94088.55;646787;212;42099;-74
2021/10/21 02:21:25;;;;;;;1.20;0.80;;;12.00;1.40;;;13.46;98.33;94084.53;646545;212;31501;-72
2021/10/21 02:24:07;;;;;;;0.90;0.90;;;11.80;1.40;;;13.29;100.00;94082.93;647641;216;31564;-71
2021/10/21 02:26:51;;;;;;;0.60;0.45;;;11.50;1.40;;;13.18;100.00;94092.34;646545;216;42165;-71
2021/10/21 02:29:33;;;;;;;1.20;0.90;;;11.40;1.40;;;13.35;100.00;94086.16;646418;216;41433;-72
2021/10/21 02:32:15;;;;;;;0.90;0.50;;;11.50;1.40;;;13.30;100.00;94106.12;647441;212;42150;-72
2021/10/21 02:35:51;;;;;;;1.70;1.33;;;11.70;1.40;;;13.21;100.00;94146.79;646725;212;31795;-71
2021/10/21 02:38:33;;;;;;;1.10;0.60;;;12.00;1.40;;;13.43;100.00;94184.10;646464;212;31547;-72
2021/10/21 02:41:15;;;;;;;0.73;0.50;;;12.30;1.40;;;13.55;100.00;94161.59;643992;216;40982;-72
2021/10/21 02:44:00;;;;;;;0.90;0.73;;;12.40;1.40;;;13.54;100.00;94095.88;646247;212;32589;-71
2021/10/21 02:49:16;;;;;;;0.98;0.70;;;12.30;1.40;;;13.71;97.82;94100.41;646491;212;38023;-72
2021/10/21 02:52:01;;;;;;;1.37;0.65;;;12.20;1.40;;;13.60;100.00;94100.50;620227;222;31883;-71
2021/10/21 02:54:43;;;;;;;1.05;1.00;;;12.10;1.40;;;13.36;100.00;94104.73;631070;222;39995;-72
2021/10/21 02:57:24;;;;;;;1.70;0.77;;;11.90;1.40;;;13.43;100.00;94104.18;646308;216;31722;-72
2021/10/21 03:00:10;;;;;;;1.20;0.73;;;11.80;1.40;;;13.27;100.00;94097.22;646201;216;39385;-73
2021/10/21 03:02:51;;;;;;;0.80;0.70;;;11.70;1.40;;;13.25;100.00;94094.73;648895;216;31583;-72
2021/10/21 03:05:33;;;;;;;0.70;0.50;;;11.60;1.40;;;13.28;100.00;94094.20;646813;216;33324;-71
2021/10/21 03:08:15;;;;;;;0.90;0.70;;;11.60;1.40;;;13.36;100.00;94114.70;646849;212;31524;-70
2021/10/21 03:10:56;;;;;;;0.80;0.50;;;11.80;1.40;;;13.47;100.00;94147.47;646832;216;42113;-71
2021/10/21 03:13:38;;;;;;;0.85;0.60;;;12.20;1.40;;;13.43;100.00;94168.87;646211;216;40144;-71
2021/10/21 03:16:20;;;;;;;0.95;0.77;;;12.00;1.40;;;13.43;100.00;94172.13;644465;212;32332;-71
2021/10/21 03:19:02;;;;;;;1.80;0.90;;;12.00;1.40;;;13.51;100.00;94183.33;646147;212;31533;-72
2021/10/21 03:21:44;;;;;;;1.00;0.62;;;12.20;1.40;;;13.54;100.00;94202.64;647585;212;36588;-71
2021/10/21 03:24:25;;;;;;;0.80;0.80;;;12.30;1.40;;;13.58;100.00;94212.31;646092;212;31510;-72
2021/10/21 03:27:07;;;;;;;1.55;0.60;;;12.30;1.40;;;13.72;100.00;94212.31;618063;226;36632;-70
2021/10/21 03:29:52;;;;;;;1.50;0.90;;;12.40;1.40;;;13.85;100.00;94210.53;646826;213;31544;-71
2021/10/21 03:32:34;;;;;;;0.90;0.90;;;12.50;1.40;;;13.95;99.59;94211.61;646006;216;32136;-71
2021/10/21 03:35:54;;;;;;;1.10;0.80;;;12.70;1.40;;;14.04;98.30;94206.20;646465;216;32263;-73
2021/10/21 03:38:35;;;;;;;1.20;0.85;;;12.70;1.40;;;14.12;96.83;94200.09;648099;212;31613;-72
2021/10/21 03:41:17;;;;;;;1.55;0.70;;;12.70;1.40;;;14.19;95.44;94184.97;648224;216;32229;-73
2021/10/21 03:43:59;;;;;;;1.10;0.90;;;12.80;1.40;;;14.21;94.87;94180.22;648012;212;31557;-72
2021/10/21 03:46:41;;;;;;;0.60;0.50;;;12.80;1.40;;;14.21;94.97;94183.53;645690;216;42552;-71
2021/10/21 03:49:22;;;;;;;1.30;0.80;;;12.90;1.40;;;14.17;97.98;94188.45;647276;216;31461;-71
2021/10/21 03:52:04;;;;;;;1.00;0.60;;;12.70;1.40;;;14.11;100.00;94205.16;619993;226;31870;-70
2021/10/21 03:54:46;;;;;;;1.00;0.70;;;12.40;1.40;;;13.95;100.00;94221.50;646558;216;31483;-71
2021/10/21 03:57:28;;;;;;;1.20;1.00;;;12.50;1.40;;;14.04;100.00;94246.30;647410;216;32162;-72
2021/10/21 04:00:10;;;;;;;0.98;0.70;;;12.40;1.40;;;13.90;100.00;94258.55;620154;226;32348;-71
2021/10/21 04:02:52;;;;;;;1.50;1.00;;;12.50;1.40;;;13.88;100.00;94253.11;644964;212;42935;-71
2021/10/21 04:05:38;;;;;;;0.80;0.65;;;12.50;1.40;;;13.88;100.00;94267.05;645964;212;31497;-71
2021/10/21 04:08:18;;;;;;;0.70;0.50;;;12.70;1.40;;;14.07;98.69;94273.08;647013;216;31494;-71
2021/10/21 04:11:05;;;;;;;1.02;0.60;;;12.90;1.40;;;14.03;99.73;94290.29;646583;216;32299;-71
2021/10/21 04:13:46;;;;;;;1.00;0.90;;;12.80;1.40;;;14.04;100.00;94305.74;645746;216;32575;-71
2021/10/21 04:16:28;;;;;;;1.80;0.90;;;12.80;1.40;;;14.10;99.45;94329.95;647866;216;31606;-72
2021/10/21 04:19:10;;;;;;;0.90;0.80;;;12.90;1.40;;;13.99;100.00;94337.83;645541;212;42443;-71
2021/10/21 04:21:51;;;;;;;1.17;1.05;;;12.80;1.40;;;13.96;100.00;94350.99;620100;222;43672;-71
2021/10/21 04:24:40;;;;;;;1.90;1.20;;;12.80;1.40;;;13.92;100.00;94355.13;649526;216;31500;-85
2021/10/21 04:27:23;;;;;;;0.90;0.68;;;12.90;1.40;;;13.83;100.00;94350.38;646428;212;42132;-71
2021/10/21 04:30:07;;;;;;;1.10;0.60;;;12.80;1.40;;;13.67;100.00;94344.40;646222;212;42324;-71
2021/10/21 04:32:48;;;;;;;1.10;0.80;;;12.70;1.40;;;13.51;100.00;94331.59;646802;216;42970;-71
2021/10/21 04:35:52;;;;;;;1.15;0.80;;;12.70;1.40;;;13.36;100.00;94286.66;644840;216;31535;-73
2021/10/21 04:38:34;;;;;;;1.05;0.70;;;12.60;1.40;;;13.28;100.00;94298.11;646227;216;32233;-70
2021/10/21 04:41:16;;;;;;;0.85;0.75;;;12.50;1.40;;;13.35;100.00;94293.09;642863;216;31689;-70
2021/10/21 04:43:57;;;;;;;1.37;1.27;;;12.70;1.40;;;13.40;100.00;94278.16;646955;216;32590;-71
2021/10/21 04:46:42;;;;;;;1.00;1.00;;;12.70;1.40;;;13.41;100.00;94344.03;645962;212;31589;-70
2021/10/21 04:49:24;;;;;;;1.25;1.15;;;12.70;1.40;;;13.25;100.00;94305.13;645570;212;31873;-71
2021/10/21 04:52:06;;;;;;;2.25;1.40;;;12.60;1.40;;;13.41;100.00;94291.75;647833;216;31546;-72
2021/10/21 04:54:47;;;;;;;1.50;1.20;;;12.70;1.40;;;13.43;100.00;94243.93;646425;212;34701;-70
2021/10/21 04:57:29;;;;;;;1.70;1.10;;;12.70;1.40;;;13.52;100.00;94261.55;646017;212;31592;-73
2021/10/21 05:00:12;;;;;;;2.22;1.40;;;12.80;1.40;;;13.54;100.00;94306.40;646734;216;40647;-73
2021/10/21 05:02:54;;;;;;;1.70;1.10;;;12.70;1.40;;;13.47;100.00;94297.36;647143;212;37028;-71
2021/10/21 05:05:36;;;;;;;1.20;1.00;;;12.60;1.40;;;13.70;100.00;94305.22;645369;216;31539;-72
2021/10/21 05:08:17;;;;;;;1.52;1.10;;;12.90;1.40;;;13.78;100.00;94309.34;618745;226;42638;-71
2021/10/21 05:11:03;;;;;;;1.60;1.00;;;13.00;1.40;;;14.03;100.00;94330.97;647017;213;31819;-71
2021/10/21 05:13:44;;;;;;;1.33;0.88;;;13.20;1.40;;;14.29;100.00;94288.98;645385;216;42187;-72
2021/10/21 05:16:26;;;;;;;1.20;1.10;;;13.50;1.40;;;14.63;100.00;94257.16;618599;226;31911;-71
2021/10/21 05:19:08;;;;;;;1.70;1.37;;;13.90;1.40;;;14.63;100.00;94257.33;646657;212;33896;-71
2021/10/21 05:21:49;;;;;;;2.72;1.30;;;13.80;1.40;;;14.66;100.00;94238.48;644890;216;43441;-71
2021/10/21 05:24:31;;;;;;;1.73;1.40;;;13.80;1.40;;;14.85;100.00;94243.77;648362;212;42181;-71
2021/10/21 05:27:13;;;;;;;1.20;1.10;;;14.00;1.40;;;14.91;100.00;94242.05;645820;216;31496;-72
2021/10/21 05:29:55;;;;;;;1.40;1.10;;;14.00;1.40;;;14.95;100.00;94257.17;646663;216;31983;-70
2021/10/21 05:32:36;;;;;;;1.08;0.80;;;14.10;1.40;;;15.16;100.00;94258.78;646457;216;31579;-71
2021/10/21 05:35:51;;;;;;;1.37;1.00;;;14.30;1.40;;;15.62;99.35;94272.78;646690;216;31599;-72
2021/10/21 05:38:33;;;;;;;1.30;0.90;;;14.90;1.40;;;16.36;92.20;94279.11;644905;212;31584;-71
2021/10/21 05:41:21;;;;;;;3.72;0.70;;;15.80;1.40;;;16.31;97.22;94273.88;642133;216;32875;-74
2021/10/21 05:45:07;;;;;;;0.90;0.50;;;15.50;1.40;;;15.95;100.00;94263.92;646285;216;31482;-72
2021/10/21 05:47:49;;;;;;;0.60;0.40;;;15.40;1.40;;;15.71;100.00;94303.80;618785;226;31847;-71
2021/10/21 05:50:31;;;;;;;0.90;0.40;;;15.10;1.40;;;15.49;100.00;94315.27;646020;216;31475;-72
2021/10/21 05:53:13;;;;;;;0.80;0.50;;;14.80;1.40;;;14.87;100.00;94314.16;645799;212;31483;-74
2021/10/21 05:55:54;;;;;;;0.57;0.45;;;13.80;1.40;;;14.55;100.00;94317.20;619486;222;36335;-72
2021/10/21 05:58:39;;;;;;;0.60;0.40;;;12.60;1.40;;;14.47;100.00;94340.92;618499;226;31991;-72
2021/10/21 06:01:20;;;;;;;1.00;0.67;;;12.80;1.40;;;14.23;100.00;94352.70;618192;222;31822;-72
2021/10/21 06:04:02;;;;;;;0.40;0.40;;;13.60;1.40;;;14.02;100.00;94369.23;646901;212;42149;-72
2021/10/21 06:06:44;;;;;;;0.70;0.40;;;13.30;1.40;;;13.86;100.00;94416.14;646220;212;33097;-73
2021/10/21 06:09:25;;;;;;;0.52;0.32;;;13.20;1.40;;;13.61;100.00;94365.43;644570;216;31680;-71
2021/10/21 06:12:07;;;;;;;0.60;0.40;;;12.90;1.40;;;13.47;100.00;94405.27;646450;216;31491;-71
2021/10/21 06:14:49;;;;;;;0.65;0.50;;;12.60;1.40;;;13.31;100.00;94400.03;646634;216;31932;-71
2021/10/21 06:17:31;;;;;;;3.10;0.75;;;12.80;1.40;;;13.18;100.00;94412.20;645927;216;31487;-71
2021/10/21 06:20:17;;;;;;;1.10;0.40;;;12.80;1.40;;;13.12;100.00;94442.55;601756;233;32178;-71
2021/10/21 06:22:59;;;;;;;0.40;0.30;;;12.80;1.40;;;13.19;100.00;94441.11;645834;216;32135;-73
2021/10/21 06:25:41;;;;;;;1.70;0.30;;;12.80;1.40;;;13.06;100.00;94437.66;645138;212;32303;-73
2021/10/21 06:28:25;;;;;;;0.40;0.30;;;12.60;1.40;;;13.06;100.00;94491.05;617504;226;31893;-72
2021/10/21 06:31:07;;;;;;;2.30;0.30;;;12.60;1.40;;;13.17;100.00;94420.05;645126;216;31525;-71
2021/10/21 06:35:51;;;;;;;4.20;0.40;;;12.70;1.40;;;13.21;100.00;94433.14;647231;212;42087;-71
2021/10/21 06:38:32;;;;;;;0.40;0.27;;;12.50;1.40;;;13.44;100.00;94495.84;645518;212;31694;-72
2021/10/21 06:41:14;;;;;;;4.10;0.40;;;12.90;1.40;;;13.67;95.65;94478.78;640855;216;31666;-71
2021/10/21 06:44:02;;;;;;;0.50;0.30;;;13.00;1.40;;;13.87;88.49;94535.86;646173;216;31489;-77
2021/10/21 06:46:47;;;;;;;0.47;0.40;;;13.20;1.40;;;13.86;88.42;94517.91;618334;226;31968;-71
2021/10/21 06:49:30;;;;;;;0.40;0.30;;;13.10;1.40;;;13.82;89.00;94521.13;645118;216;32180;-72
2021/10/21 06:52:09;;;;;;;0.88;0.20;;;13.10;1.40;;;13.78;90.35;94534.34;631907;221;31741;-74
2021/10/21 06:54:51;;;;;;;0.50;0.30;;;13.10;1.40;;;13.71;93.06;94514.88;646118;212;31892;-71
2021/10/21 06:57:33;;;;;;;0.70;0.30;;;13.00;1.40;;;13.68;95.78;94517.44;646417;212;31628;-71
2021/10/21 07:00:15;;;;;;;0.40;0.20;;;12.90;1.40;;;13.58;99.07;94487.89;646259;212;31573;-71
2021/10/21 07:02:57;;;;;;;0.40;0.20;;;12.90;1.40;;;13.62;98.20;94473.58;647486;216;31497;-71
2021/10/21 07:05:39;;;;;;;0.60;0.30;;;12.90;1.40;;;13.40;100.00;94487.66;647630;212;31605;-71
2021/10/21 07:10:56;;;;;;;0.50;0.20;;;12.60;1.40;;;13.10;100.00;94534.64;645353;216;31537;-70
2021/10/21 07:13:37;;;;;;;0.40;0.20;;;12.40;1.40;;;13.04;100.00;94516.27;647740;216;31504;-71
2021/10/21 07:16:18;;;;;;;0.50;0.20;;;12.40;1.40;;;13.02;100.00;94505.68;645991;212;31521;-70
2021/10/21 07:19:00;;;;;;;2.20;0.40;;;12.30;1.40;;;13.12;100.00;94532.23;647150;212;31514;-71
2021/10/21 07:21:43;;;;;;;0.40;0.20;;;12.40;1.40;;;13.25;100.00;94541.65;646689;212;31462;-70
2021/10/21 07:24:24;;;;;;;1.00;0.43;;;12.50;1.40;;;13.24;100.00;94535.69;646501;216;32003;-70
2021/10/21 07:27:05;;;;;;;0.40;0.20;;;12.50;1.40;;;13.31;100.00;94566.48;645771;216;32057;-71
2021/10/21 07:29:51;;;;;;;5.70;0.40;;;12.50;1.40;;;13.32;100.00;94555.78;646799;216;31559;-70
2021/10/21 07:32:32;;;;;;;1.00;0.80;;;12.60;1.40;;;13.35;100.00;94560.05;641450;217;42687;-72
2021/10/21 07:35:54;;;;;;;0.90;0.30;;;12.70;1.40;;;13.47;100.00;94572.81;646002;216;32463;-71
2021/10/21 07:38:35;;;;;;;0.40;0.20;;;12.80;1.40;;;13.48;100.00;94603.67;646120;212;32073;-71
2021/10/21 07:41:17;;;;;;;0.40;0.25;;;12.70;1.40;;;13.55;99.80;94574.78;641316;212;31661;-70
2021/10/21 07:43:58;;;;;;;1.00;0.70;;;12.90;1.40;;;13.58;96.21;94605.39;630724;217;32259;-71
2021/10/21 07:46:42;;;;;;;2.30;0.50;;;12.80;1.40;;;13.55;95.28;94602.94;646413;216;32164;-71
2021/10/21 07:49:22;;;;;;;0.40;0.30;;;12.90;1.40;;;13.61;92.39;94610.31;645469;216;32199;-71
2021/10/21 07:52:04;;;;;;;0.40;0.30;;;12.90;1.40;;;13.57;91.53;94636.61;646523;212;31949;-71
2021/10/21 07:54:45;;;;;;;3.70;0.60;;;12.90;1.40;;;13.66;86.06;94636.20;645217;216;32110;-72
2021/10/21 07:57:27;;;;;;;0.98;0.30;;;12.90;1.40;;;13.63;85.27;94648.04;632197;217;42415;-71
2021/10/21 08:00:12;;;;;;;1.60;0.50;;;12.90;1.40;;;13.66;84.64;94658.48;618609;222;31961;-70
2021/10/21 08:02:52;;;;;;;2.58;0.80;;;12.90;1.40;;;13.60;84.75;94668.03;647136;212;31496;-70
2021/10/21 08:05:34;;;;;;;0.50;0.30;;;12.90;1.40;;;13.56;84.47;94666.06;647117;216;31527;-70
2021/10/21 08:10:41;;;;;;;3.30;0.60;;;12.90;1.40;;;13.58;84.78;94644.69;646898;212;31935;-71
2021/10/21 08:13:22;;;;;;;0.93;0.27;;;12.90;1.40;;;13.58;83.44;94691.22;645558;212;31513;-71
2021/10/21 08:16:04;;;;;;;1.58;0.60;;;12.90;1.40;;;13.64;82.32;94671.66;646565;214;42113;-69
2021/10/21 08:18:49;;;;;;;1.60;0.30;;;13.10;1.40;;;13.99;82.03;94674.23;646967;212;31505;-72
2021/10/21 08:21:31;;;;;;;0.50;0.30;;;13.40;1.40;;;14.15;81.63;94670.75;618859;222;31852;-71
2021/10/21 08:24:12;;;;;;;0.70;0.30;;;13.60;1.40;;;14.36;80.80;94690.19;646136;216;31673;-70
2021/10/21 08:26:54;;;;;;;0.98;0.30;;;13.70;1.40;;;14.16;80.88;94703.72;646263;216;35727;-70
2021/10/21 08:29:36;;;;;;;2.20;0.50;;;13.40;1.40;;;14.19;82.30;94688.89;644481;216;31534;-72
2021/10/21 08:32:18;;;;;;;0.90;0.30;;;13.60;1.40;;;14.26;80.88;94705.70;646827;212;33524;-70
2021/10/21 08:35:51;;;;;;;3.10;0.30;;;13.60;1.40;;;14.30;81.58;94695.81;647159;212;31470;-70
2021/10/21 08:38:33;;;;;;;0.40;0.30;;;13.70;1.40;;;14.48;79.89;94708.19;646445;212;31634;-72
2021/10/21 08:41:15;;;;;;;0.40;0.30;;;14.00;1.40;;;14.77;80.49;94744.02;642681;212;38433;-70
2021/10/21 08:43:57;;;;;;;2.20;0.80;;;14.30;1.40;;;15.81;75.95;94700.31;618945;226;32160;-70
2021/10/21 08:46:38;;;;;;;2.90;0.60;;;16.20;1.40;;;16.26;74.14;94711.17;645093;212;42286;-69
2021/10/21 08:49:20;;;;;;;2.70;0.40;;;16.50;1.40;;;16.30;68.90;94714.13;647190;216;31630;-70
2021/10/21 08:52:02;;;;;;;0.85;0.32;;;16.70;1.40;;;16.97;71.10;94723.02;617646;222;31923;-69
2021/10/21 08:54:44;;;;;;;1.40;0.32;;;17.50;1.40;;;16.78;66.01;94719.95;646402;212;31492;-70
2021/10/21 08:57:28;;;;;;;1.60;0.30;;;15.80;1.40;;;15.05;71.68;94728.99;646401;216;31794;-70
2021/10/21 09:00:11;;;;;;;0.50;0.40;;;14.10;1.40;;;14.68;73.74;94772.16;645788;212;31488;-70
2021/10/21 09:02:54;;;;;;;0.45;0.40;;;13.90;1.40;;;15.12;73.70;94745.38;646051;216;31542;-69
2021/10/21 09:05:38;;;;;;;2.95;0.70;;;14.40;1.40;;;14.56;75.51;94734.73;646883;216;31578;-70
2021/10/21 09:08:18;;;;;;;1.40;0.40;;;13.80;1.40;;;15.11;72.28;94755.86;645991;216;31486;-71
2021/10/21 09:10:58;;;;;;;1.40;0.50;;;15.60;1.40;;;16.02;64.87;94751.22;645999;212;31601;-70
2021/10/21 09:13:42;;;;;;;1.50;0.70;;;16.20;1.40;;;16.35;61.38;94751.82;645606;216;31406;-70
2021/10/21 09:16:23;;;;;;;0.90;0.43;;;16.30;1.40;;;16.03;62.71;94765.45;646010;212;31482;-69
2021/10/21 09:19:09;;;;;;;4.10;0.50;;;15.10;1.40;;;15.85;63.12;94759.36;646549;216;31483;-70
2021/10/21 09:21:51;;;;;;;1.60;0.43;;;15.40;1.40;;;15.07;65.82;94764.58;646891;212;31555;-71
2021/10/21 09:24:39;;;;;;;0.52;0.43;;;14.10;1.40;;;14.71;66.28;94753.70;645576;212;31519;-71
2021/10/21 09:27:19;;;;;;;1.23;0.45;;;14.60;1.40;;;15.80;60.29;94736.86;647234;216;31479;-72
2021/10/21 09:30:00;;;;;;;0.43;0.20;;;15.60;1.40;;;15.45;62.52;94836.32;646611;216;31512;-70
2021/10/21 09:32:42;;;;;;;1.17;0.30;;;14.60;1.40;;;14.65;64.21;94794.12;645876;212;31475;-70
2021/10/21 09:35:55;;;;;;;0.70;0.40;;;13.90;1.40;;;15.17;63.56;94765.42;646402;216;32392;-69
2021/10/21 09:38:37;;;;;;;0.57;0.30;;;15.50;1.40;;;15.85;60.50;94808.61;647373;212;33119;-69
2021/10/21 09:41:22;;;;;;;2.92;0.43;;;15.90;1.40;;;16.58;59.72;94820.75;642867;216;32287;-70
2021/10/21 09:44:04;;;;;;;1.15;0.30;;;16.70;1.40;;;16.44;56.94;94843.52;646647;212;31519;-70
2021/10/21 09:46:45;;;;;;;0.55;0.30;;;16.30;1.40;;;16.56;58.06;94824.62;618305;226;31847;-70
2021/10/21 09:49:29;;;;;;;4.55;0.52;;;16.90;1.40;;;16.97;58.12;94841.33;645617;216;31469;-70
2021/10/21 09:52:15;;;;;;;0.52;0.40;;;17.30;1.40;;;16.85;58.63;94822.64;645846;212;31493;-70
2021/10/21 09:55:00;;;;;;;1.70;0.70;;;16.90;1.40;;;16.11;58.64;94845.98;646103;213;31762;-69
2021/10/21 09:57:42;;;;;;;1.00;0.40;;;16.40;1.40;;;17.19;56.67;94832.73;646628;212;42141;-69
2021/10/21 10:00:23;;;;;;;0.50;0.30;;;16.70;1.40;;;17.32;57.45;94857.62;646455;216;31490;-68
2021/10/21 10:03:12;;;;;;;1.30;0.30;;;17.40;1.40;;;16.88;55.16;94841.44;646082;212;31472;-70
2021/10/21 10:05:54;;;;;;;2.10;0.25;;;15.80;1.40;;;16.44;58.00;94862.86;646246;212;32017;-69
2021/10/21 10:08:35;;;;;;;2.40;0.50;;;16.90;1.40;;;17.33;55.85;94866.29;647310;212;31476;-70
2021/10/21 10:11:19;;;;;;;2.50;0.37;;;17.30;1.40;;;18.23;52.88;94853.73;646118;216;31546;-72
2021/10/21 10:14:01;;;;;;;0.40;0.30;;;18.00;1.40;;;17.76;52.20;94861.81;646607;212;32110;-71
2021/10/21 10:16:44;;;;;;;2.08;0.40;;;16.40;1.40;;;15.68;58.30;94851.97;618549;222;31856;-70
2021/10/21 10:19:30;;;;;;;0.77;0.45;;;14.60;1.40;;;14.65;61.39;94837.50;616143;225;31833;-74
2021/10/21 10:22:20;;;;;;;1.00;0.40;;;13.90;1.40;;;14.50;62.57;94868.15;618268;223;31897;-70
2021/10/21 10:25:16;;;;;;;1.10;0.60;;;13.90;1.40;;;14.45;65.63;94873.30;646519;212;31484;-69
2021/10/21 10:28:00;;;;;;;0.40;0.40;;;13.70;1.40;;;14.46;63.45;94871.14;647370;216;31888;-69
2021/10/21 10:30:45;;;;;;;0.90;0.20;;;13.80;1.40;;;14.68;64.71;94871.28;646536;216;32470;-70
2021/10/21 10:35:52;;;;;;;0.75;0.30;;;16.20;1.40;;;15.82;59.81;94871.17;646253;216;31999;-70
2021/10/21 10:38:36;;;;;;;1.70;0.30;;;15.90;1.40;;;15.38;60.81;94873.11;646437;212;32019;-70
2021/10/21 10:41:34;;;;;;;1.30;0.30;;;14.70;1.40;;;16.31;58.88;94856.64;647441;216;31458;-70
2021/10/21 10:44:48;;;;;;;0.80;0.40;;;15.70;1.40;;;16.30;58.70;94836.81;647608;212;42531;-69
2021/10/21 10:47:47;;;;;;;4.20;0.50;;;16.10;1.40;;;17.63;54.82;94872.39;647189;216;31534;-69
2021/10/21 10:50:49;;;;;;;2.00;0.50;;;17.20;1.40;;;17.41;53.68;94874.72;647799;212;31481;-70
2021/10/21 10:53:44;;;;;;;0.98;0.47;;;15.80;1.40;;;17.17;54.97;94879.34;646260;212;31498;-70
2021/10/21 10:56:40;;;;;;;0.40;0.30;;;17.00;1.40;;;17.40;49.77;94887.97;647915;212;42325;-70
2021/10/21 10:59:22;;;;;;;1.87;0.40;;;15.90;1.40;;;16.72;52.90;94911.34;646268;216;31565;-70
2021/10/21 11:02:31;;;;;;;0.90;0.40;;;15.80;1.40;;;16.41;53.37;94892.33;646194;212;31459;-70
2021/10/21 11:05:13;;;;;;;3.30;0.40;;;16.50;1.40;;;16.89;53.84;94887.41;646561;212;33476;-70
2021/10/21 11:07:57;;;;;;;1.60;0.50;;;16.60;1.40;;;17.67;51.60;94883.47;647623;216;31576;-72
2021/10/21 11:10:44;;;;;;;0.40;0.20;;;17.70;1.40;;;17.99;47.42;94876.27;646602;212;32054;-70
2021/10/21 11:13:42;;;;;;;1.20;0.30;;;17.00;1.40;;;18.30;47.18;94859.06;646645;216;31733;-69
2021/10/21 11:16:41;;;;;;;1.80;0.30;;;17.50;1.40;;;17.31;48.48;94904.02;648314;212;31527;-69
2021/10/21 11:19:46;;;;;;;1.10;0.40;;;17.00;1.40;;;18.01;48.73;94893.38;645565;216;31898;-69
2021/10/21 11:22:37;;;;;;;2.50;0.70;;;17.30;1.40;;;18.18;47.52;94891.07;646674;212;31468;-70
2021/10/21 11:25:18;;;;;;;0.93;0.52;;;17.50;1.40;;;18.68;46.23;94865.96;647710;213;31530;-69
2021/10/21 11:30:38;;;;;;;2.50;0.40;;;19.10;1.40;;;19.99;44.61;94897.10;646032;216;31485;-70
2021/10/21 11:35:52;;;;;;;0.93;0.30;;;18.10;1.40;;;19.05;43.92;94901.84;645977;212;31505;-69
2021/10/21 11:38:39;;;;;;;1.12;0.40;;;18.00;1.40;;;18.81;44.42;94863.56;619166;222;32559;-71
2021/10/21 11:41:27;;;;;;;1.70;0.40;;;17.40;1.40;;;17.97;44.88;94884.42;627165;221;31861;-71
2021/10/21 11:44:08;;;;;;;1.20;0.40;;;16.90;1.40;;;18.10;45.34;94889.14;646517;216;31490;-70
2021/10/21 11:46:59;;;;;;;0.40;0.20;;;16.90;1.40;;;17.91;45.61;94908.95;646981;216;42170;-69
2021/10/21 11:49:41;;;;;;;0.80;0.40;;;16.40;1.40;;;17.00;49.20;94908.86;645773;212;31726;-70
2021/10/21 11:52:22;;;;;;;1.80;0.50;;;16.10;1.40;;;17.21;48.85;94892.06;644936;216;32066;-70
2021/10/21 11:55:05;;;;;;;0.40;0.20;;;16.30;1.40;;;17.18;48.22;94886.57;646404;216;31525;-70
2021/10/21 11:57:46;;;;;;;0.45;0.30;;;16.40;1.40;;;17.28;47.43;94886.30;647080;216;32074;-70